Airfield :
LOGIN :

Register | Disclaimer

   EN    FR    IT 

 










Legend :    VFR   Marginal VFR   IFR   Intensive IFR   Very Intensive IFR
Visi :
Ceiling :
>= 8 km
>= 3000ft
5 to 8 km
1000 to 3000 ft
1500m to 5 km
500 to 1000 ft
800 to 1500m
200 to 500 ft
< 800m
< 200 ft
Symbols :   Thunderstorms  Fog  Heavy snow  Heavy precipitations  Wind > 20 kt
SIGMETs :     Misc.  Thunderstorms  Icing  Turbulence  Mountain Waves  Volcanic Ashes






- Airport Elevation : 468 ft
- IATA code : GRO


LEGE - Girona Costa Brava

CURRENT METAR :
  • 221200Z 03015KT 350V050 9999 BKN070 18/14 Q1012

EXPIRED METARs :
  • 221130Z 03017G27KT 340V060 9999 BKN025 18/14 Q1013
  • 221100Z 02016G29KT 340V060 9999 BKN025 18/14 Q1013
  • 221030Z 02017KT 330V060 9999 SCT025 18/14 Q1014
  • 221000Z 02017KT 340V050 9999 SCT024 17/14 Q1014
  • 220930Z 02015KT 350V050 9999 OVC015 15/14 Q1014 RERA

TAF TAF LEGE
Valid from the 22 at 12:00 until the 23 at 12:00 UTC


221100Z 2212/2312 01015KT 9999 BKN018 TX21/2213Z TN12/2306Z
PROB40 2212/2312 3000 SHRA BKN014 FEW018TCU
TEMPO 2212/2308 36015G25KT 2000 TSRA SCT025CB OVC030
TEMPO 2218/2308 01005KT
BECMG 2305/2308 20010KT



MET'MAP, your aeronautical weather chart ! - Copyright ORBIFLY December 2007 - Disclaimer

ORBIFLY MET'MAP TEAM :

Programming & Development : Alexandra Zaïnal
Concept & Development : Baudouin d'Aumeries
Co-Development & Prog : Marc-Olivier Méhu
Technical & hardware support : Manuel Goepfert

Contact : metmap@orbifly.com




SOURCES & CREDITS :

   NOAA